sensor_id;sensor_type;location;lat;lon;timestamp;pressure;altitude;pressure_sealevel;temperature;humidity
79347;BME280;68815;48.810;44.482;2023-08-07T00:03:01;100061;;;26.4;49.5
79347;BME280;68815;48.810;44.482;2023-08-07T00:06:02;100061;;;26.3;49.5
79347;BME280;68815;48.810;44.482;2023-08-07T00:09:04;100076;;;26.4;49.4
79347;BME280;68815;48.810;44.482;2023-08-07T00:12:05;100065;;;26.3;49.4
79347;BME280;68815;48.810;44.482;2023-08-07T00:15:07;100061;;;26.4;49.2
79347;BME280;68815;48.810;44.482;2023-08-07T00:18:09;100072;;;26.2;49.8
79347;BME280;68815;48.810;44.482;2023-08-07T00:21:11;100069;;;26.1;49.9
79347;BME280;68815;48.810;44.482;2023-08-07T00:24:13;100073;;;26.2;49.6
79347;BME280;68815;48.810;44.482;2023-08-07T00:27:14;100077;;;26.2;49.7
79347;BME280;68815;48.810;44.482;2023-08-07T00:30:16;100075;;;26.1;50
79347;BME280;68815;48.810;44.482;2023-08-07T00:33:17;100079;;;26.1;50
79347;BME280;68815;48.810;44.482;2023-08-07T00:36:19;100077;;;26;50.2
79347;BME280;68815;48.810;44.482;2023-08-07T00:39:21;100077;;;26;50.3
79347;BME280;68815;48.810;44.482;2023-08-07T00:42:23;100079;;;26;50.2
79347;BME280;68815;48.810;44.482;2023-08-07T00:45:24;100076;;;25.9;50.4
79347;BME280;68815;48.810;44.482;2023-08-07T00:48:26;100078;;;25.9;50.4
79347;BME280;68815;48.810;44.482;2023-08-07T00:51:28;100070;;;25.9;50.3
79347;BME280;68815;48.810;44.482;2023-08-07T00:54:31;100080;;;25.9;50.1
79347;BME280;68815;48.810;44.482;2023-08-07T00:57:33;100070;;;25.8;50.6
79347;BME280;68815;48.810;44.482;2023-08-07T01:00:35;100066;;;25.8;50.3
79347;BME280;68815;48.810;44.482;2023-08-07T01:03:37;100066;;;25.7;50.6
79347;BME280;68815;48.810;44.482;2023-08-07T01:06:39;100063;;;25.7;50.3
79347;BME280;68815;48.810;44.482;2023-08-07T01:09:40;100061;;;25.8;50.3
79347;BME280;68815;48.810;44.482;2023-08-07T01:12:48;100062;;;25.8;50.1
79347;BME280;68815;48.810;44.482;2023-08-07T01:15:55;100071;;;25.7;50.2
79347;BME280;68815;48.810;44.482;2023-08-07T01:19:01;100063;;;25.7;50.4
79347;BME280;68815;48.810;44.482;2023-08-07T01:22:04;100062;;;25.7;50.2
79347;BME280;68815;48.810;44.482;2023-08-07T01:25:06;100059;;;25.7;50.1
79347;BME280;68815;48.810;44.482;2023-08-07T01:28:14;100053;;;25.7;50.1
79347;BME280;68815;48.810;44.482;2023-08-07T01:31:20;100062;;;25.6;50.2
79347;BME280;68815;48.810;44.482;2023-08-07T01:34:25;100059;;;25.6;50.2
79347;BME280;68815;48.810;44.482;2023-08-07T01:37:29;100058;;;25.5;50.3
79347;BME280;68815;48.810;44.482;2023-08-07T01:40:32;100055;;;25.5;50.3
79347;BME280;68815;48.810;44.482;2023-08-07T01:43:35;100051;;;25.6;50
79347;BME280;68815;48.810;44.482;2023-08-07T01:46:37;100050;;;25.5;50.1
79347;BME280;68815;48.810;44.482;2023-08-07T01:49:38;100050;;;25.6;49.9
79347;BME280;68815;48.810;44.482;2023-08-07T01:52:40;100059;;;25.5;50
79347;BME280;68815;48.810;44.482;2023-08-07T01:55:41;100056;;;25.4;50.2
79347;BME280;68815;48.810;44.482;2023-08-07T01:58:43;100057;;;25.4;50.1
79347;BME280;68815;48.810;44.482;2023-08-07T02:01:45;100061;;;25.4;50
79347;BME280;68815;48.810;44.482;2023-08-07T02:04:46;100061;;;25.5;49.4
79347;BME280;68815;48.810;44.482;2023-08-07T02:07:47;100061;;;25.5;49.2
79347;BME280;68815;48.810;44.482;2023-08-07T02:10:49;100056;;;25.6;49
79347;BME280;68815;48.810;44.482;2023-08-07T02:13:50;100057;;;25.7;48.4
79347;BME280;68815;48.810;44.482;2023-08-07T02:16:52;100052;;;25.7;48.3
79347;BME280;68815;48.810;44.482;2023-08-07T02:19:54;100057;;;25.8;48.1
79347;BME280;68815;48.810;44.482;2023-08-07T02:22:55;100052;;;25.9;47.6
79347;BME280;68815;48.810;44.482;2023-08-07T02:25:57;100053;;;25.9;47.5
79347;BME280;68815;48.810;44.482;2023-08-07T02:28:58;100052;;;26;47.2
79347;BME280;68815;48.810;44.482;2023-08-07T02:32:01;100053;;;26.2;46.8
79347;BME280;68815;48.810;44.482;2023-08-07T02:35:04;100047;;;26.2;46.2
79347;BME280;68815;48.810;44.482;2023-08-07T02:38:06;100052;;;26.3;45.8
79347;BME280;68815;48.810;44.482;2023-08-07T02:41:07;100047;;;26.2;46
79347;BME280;68815;48.810;44.482;2023-08-07T02:44:09;100050;;;26.4;45.4
79347;BME280;68815;48.810;44.482;2023-08-07T02:47:10;100052;;;26.6;45
79347;BME280;68815;48.810;44.482;2023-08-07T02:50:12;100052;;;26.6;45.3
79347;BME280;68815;48.810;44.482;2023-08-07T02:53:14;100055;;;26.5;45.5
79347;BME280;68815;48.810;44.482;2023-08-07T02:56:15;100060;;;26.7;44.9
79347;BME280;68815;48.810;44.482;2023-08-07T02:59:17;100053;;;26.9;44.4
79347;BME280;68815;48.810;44.482;2023-08-07T03:02:18;100068;;;26.8;43.9
79347;BME280;68815;48.810;44.482;2023-08-07T03:05:20;100062;;;27;43.8
79347;BME280;68815;48.810;44.482;2023-08-07T03:08:21;100053;;;27.1;43.3
79347;BME280;68815;48.810;44.482;2023-08-07T03:11:23;100056;;;27.3;42.6
79347;BME280;68815;48.810;44.482;2023-08-07T03:14:24;100057;;;27;43.1
79347;BME280;68815;48.810;44.482;2023-08-07T03:17:26;100057;;;26.8;43.3
79347;BME280;68815;48.810;44.482;2023-08-07T03:20:27;100064;;;26.9;43
79347;BME280;68815;48.810;44.482;2023-08-07T03:23:29;100056;;;26.8;43.4
79347;BME280;68815;48.810;44.482;2023-08-07T03:26:30;100058;;;26.8;43.6
79347;BME280;68815;48.810;44.482;2023-08-07T03:29:32;100059;;;27;43.6
79347;BME280;68815;48.810;44.482;2023-08-07T03:32:34;100058;;;27.2;42.8
79347;BME280;68815;48.810;44.482;2023-08-07T03:35:36;100059;;;27.2;42.4
79347;BME280;68815;48.810;44.482;2023-08-07T03:38:38;100057;;;27.2;42.3
79347;BME280;68815;48.810;44.482;2023-08-07T03:41:39;100050;;;27.3;41.7
79347;BME280;68815;48.810;44.482;2023-08-07T03:44:41;100063;;;27.7;41.5
79347;BME280;68815;48.810;44.482;2023-08-07T03:47:42;100056;;;27.5;41.6
79347;BME280;68815;48.810;44.482;2023-08-07T03:50:44;100052;;;27.6;41.6
79347;BME280;68815;48.810;44.482;2023-08-07T03:53:46;100055;;;27.4;41.9
79347;BME280;68815;48.810;44.482;2023-08-07T03:56:47;100052;;;27.5;41.6
79347;BME280;68815;48.810;44.482;2023-08-07T03:59:49;100058;;;27.9;41
79347;BME280;68815;48.810;44.482;2023-08-07T04:02:50;100051;;;27.8;40.6
79347;BME280;68815;48.810;44.482;2023-08-07T04:05:53;100053;;;28.1;40.5
79347;BME280;68815;48.810;44.482;2023-08-07T04:08:54;100060;;;27.8;40.7
79347;BME280;68815;48.810;44.482;2023-08-07T04:11:56;100051;;;28.3;40
79347;BME280;68815;48.810;44.482;2023-08-07T04:14:57;100056;;;28.6;39.2
79347;BME280;68815;48.810;44.482;2023-08-07T04:17:59;100056;;;28.8;38.5
79347;BME280;68815;48.810;44.482;2023-08-07T04:21:01;100054;;;28.9;39.1
79347;BME280;68815;48.810;44.482;2023-08-07T04:24:03;100047;;;29.2;37.8
79347;BME280;68815;48.810;44.482;2023-08-07T04:27:05;100049;;;29;38.8
79347;BME280;68815;48.810;44.482;2023-08-07T04:30:07;100054;;;29.1;38.3
79347;BME280;68815;48.810;44.482;2023-08-07T04:33:09;100051;;;28.9;38.6
79347;BME280;68815;48.810;44.482;2023-08-07T04:36:11;100054;;;29.2;39
79347;BME280;68815;48.810;44.482;2023-08-07T04:39:12;100057;;;29.3;38.2
79347;BME280;68815;48.810;44.482;2023-08-07T04:42:14;100051;;;29.8;37.2
79347;BME280;68815;48.810;44.482;2023-08-07T04:45:15;100054;;;30;36.6
79347;BME280;68815;48.810;44.482;2023-08-07T04:48:17;100045;;;30;36.7
79347;BME280;68815;48.810;44.482;2023-08-07T04:51:18;100049;;;30.1;36.6
79347;BME280;68815;48.810;44.482;2023-08-07T04:54:20;100047;;;30.3;36.7
79347;BME280;68815;48.810;44.482;2023-08-07T04:57:21;100041;;;30.2;36.7
79347;BME280;68815;48.810;44.482;2023-08-07T05:00:23;100035;;;30.9;35.6
79347;BME280;68815;48.810;44.482;2023-08-07T05:03:25;100035;;;30.9;35.2
79347;BME280;68815;48.810;44.482;2023-08-07T05:06:26;100030;;;30.7;35.5
79347;BME280;68815;48.810;44.482;2023-08-07T05:09:28;100035;;;31.3;35.1
79347;BME280;68815;48.810;44.482;2023-08-07T05:12:29;100035;;;31.6;34
79347;BME280;68815;48.810;44.482;2023-08-07T05:15:31;100033;;;31.9;34
79347;BME280;68815;48.810;44.482;2023-08-07T05:18:32;100028;;;32.1;33.7
79347;BME280;68815;48.810;44.482;2023-08-07T05:21:34;100025;;;32.3;33.1
79347;BME280;68815;48.810;44.482;2023-08-07T05:24:35;100022;;;32.9;32.6
79347;BME280;68815;48.810;44.482;2023-08-07T05:27:37;100032;;;32.3;33.7
79347;BME280;68815;48.810;44.482;2023-08-07T05:30:38;100034;;;32.3;33
79347;BME280;68815;48.810;44.482;2023-08-07T05:33:40;100026;;;33;31.8
79347;BME280;68815;48.810;44.482;2023-08-07T05:36:42;100015;;;33.4;31.2
79347;BME280;68815;48.810;44.482;2023-08-07T05:39:44;100027;;;33.5;31
79347;BME280;68815;48.810;44.482;2023-08-07T05:42:45;100028;;;33.3;31.2
79347;BME280;68815;48.810;44.482;2023-08-07T05:45:47;100020;;;34;30.7
79347;BME280;68815;48.810;44.482;2023-08-07T05:48:49;100028;;;34.5;29.5
79347;BME280;68815;48.810;44.482;2023-08-07T05:51:50;100014;;;33.9;30.2
79347;BME280;68815;48.810;44.482;2023-08-07T05:54:52;100021;;;34.6;29.7
79347;BME280;68815;48.810;44.482;2023-08-07T05:57:53;100008;;;34.4;29.5
79347;BME280;68815;48.810;44.482;2023-08-07T06:00:55;100024;;;35;28.8
79347;BME280;68815;48.810;44.482;2023-08-07T06:03:57;100013;;;34.9;29.1
79347;BME280;68815;48.810;44.482;2023-08-07T06:06:58;100009;;;34.5;29.8
79347;BME280;68815;48.810;44.482;2023-08-07T06:09:59;100002;;;34.6;29.3
79347;BME280;68815;48.810;44.482;2023-08-07T06:13:01;100000;;;35.4;29.1
79347;BME280;68815;48.810;44.482;2023-08-07T06:16:03;100000;;;35.3;29.3
79347;BME280;68815;48.810;44.482;2023-08-07T06:19:04;99990;;;33.6;31.4
79347;BME280;68815;48.810;44.482;2023-08-07T06:22:06;99989;;;33.1;32.2
79347;BME280;68815;48.810;44.482;2023-08-07T06:25:08;99994;;;33.3;32
79347;BME280;68815;48.810;44.482;2023-08-07T06:28:09;99984;;;33.5;32.6
79347;BME280;68815;48.810;44.482;2023-08-07T06:31:11;99988;;;33.3;32.1
79347;BME280;68815;48.810;44.482;2023-08-07T06:34:13;99981;;;32.9;33.1
79347;BME280;68815;48.810;44.482;2023-08-07T06:37:15;99979;;;33.2;32.5
79347;BME280;68815;48.810;44.482;2023-08-07T06:40:17;99974;;;33.5;31.6
79347;BME280;68815;48.810;44.482;2023-08-07T06:43:19;99978;;;33.9;32.4
79347;BME280;68815;48.810;44.482;2023-08-07T06:46:20;99974;;;34.2;31.7
79347;BME280;68815;48.810;44.482;2023-08-07T06:49:22;99969;;;34;31.2
79347;BME280;68815;48.810;44.482;2023-08-07T06:52:24;99965;;;34.3;31.4
79347;BME280;68815;48.810;44.482;2023-08-07T06:55:26;99974;;;34.3;30.7
79347;BME280;68815;48.810;44.482;2023-08-07T06:58:27;99985;;;34.6;30.6
79347;BME280;68815;48.810;44.482;2023-08-07T07:01:29;99978;;;34.1;31.1
79347;BME280;68815;48.810;44.482;2023-08-07T07:04:31;99981;;;34.2;30.7
79347;BME280;68815;48.810;44.482;2023-08-07T07:07:32;99960;;;34.1;30.6
79347;BME280;68815;48.810;44.482;2023-08-07T07:10:34;99963;;;34;30.8
79347;BME280;68815;48.810;44.482;2023-08-07T07:13:35;99968;;;34.1;30.9
79347;BME280;68815;48.810;44.482;2023-08-07T07:16:37;99967;;;34.3;30.4
79347;BME280;68815;48.810;44.482;2023-08-07T07:19:38;99978;;;34.2;30.2
79347;BME280;68815;48.810;44.482;2023-08-07T07:22:40;99963;;;34.3;30.3
79347;BME280;68815;48.810;44.482;2023-08-07T07:25:41;99971;;;34.4;30
79347;BME280;68815;48.810;44.482;2023-08-07T07:28:43;99950;;;34.5;30.3
79347;BME280;68815;48.810;44.482;2023-08-07T07:31:44;99963;;;34.3;29.8
79347;BME280;68815;48.810;44.482;2023-08-07T07:34:46;99966;;;34.3;30
79347;BME280;68815;48.810;44.482;2023-08-07T07:37:48;99958;;;34.4;30.1
79347;BME280;68815;48.810;44.482;2023-08-07T07:40:50;99947;;;34.4;30.2
79347;BME280;68815;48.810;44.482;2023-08-07T07:43:52;99953;;;34;30.2
79347;BME280;68815;48.810;44.482;2023-08-07T07:46:53;99951;;;34.3;30.2
79347;BME280;68815;48.810;44.482;2023-08-07T07:50:05;99949;;;34.6;30
79347;BME280;68815;48.810;44.482;2023-08-07T07:53:08;99956;;;34.6;29.8
79347;BME280;68815;48.810;44.482;2023-08-07T07:56:09;99932;;;34.7;29.4
79347;BME280;68815;48.810;44.482;2023-08-07T07:59:11;99939;;;34.4;29.7
79347;BME280;68815;48.810;44.482;2023-08-07T08:02:13;99945;;;34.5;29.2
79347;BME280;68815;48.810;44.482;2023-08-07T08:05:14;99945;;;34.4;29.9
79347;BME280;68815;48.810;44.482;2023-08-07T08:08:16;99953;;;34.4;29.8
79347;BME280;68815;48.810;44.482;2023-08-07T08:11:17;99936;;;34.4;30
79347;BME280;68815;48.810;44.482;2023-08-07T08:14:19;99935;;;34.7;29.9
79347;BME280;68815;48.810;44.482;2023-08-07T08:17:22;99938;;;34.7;29.5
79347;BME280;68815;48.810;44.482;2023-08-07T08:20:24;99918;;;34.5;29.5
79347;BME280;68815;48.810;44.482;2023-08-07T08:23:26;99930;;;34.4;29.5
79347;BME280;68815;48.810;44.482;2023-08-07T08:26:28;99932;;;34.5;29.5
79347;BME280;68815;48.810;44.482;2023-08-07T08:29:29;99940;;;34.7;29.4
79347;BME280;68815;48.810;44.482;2023-08-07T08:32:31;99927;;;34.6;29.5
79347;BME280;68815;48.810;44.482;2023-08-07T08:35:34;99917;;;34.5;29.4
79347;BME280;68815;48.810;44.482;2023-08-07T08:38:35;99915;;;34.7;29.4
79347;BME280;68815;48.810;44.482;2023-08-07T08:41:37;99932;;;34.6;29.1
79347;BME280;68815;48.810;44.482;2023-08-07T08:44:40;99918;;;34.8;28.9
79347;BME280;68815;48.810;44.482;2023-08-07T08:47:43;99909;;;34.8;28.9
79347;BME280;68815;48.810;44.482;2023-08-07T08:50:45;99917;;;34.6;28.7
79347;BME280;68815;48.810;44.482;2023-08-07T08:53:47;99912;;;34.6;28.8
79347;BME280;68815;48.810;44.482;2023-08-07T08:56:49;99917;;;34.8;29.1
79347;BME280;68815;48.810;44.482;2023-08-07T08:59:51;99903;;;34.5;28.6
79347;BME280;68815;48.810;44.482;2023-08-07T09:02:52;99912;;;34.5;29.2
79347;BME280;68815;48.810;44.482;2023-08-07T09:05:58;99907;;;34.6;28.6
79347;BME280;68815;48.810;44.482;2023-08-07T09:09:01;99906;;;34.7;28.5
79347;BME280;68815;48.810;44.482;2023-08-07T09:12:04;99918;;;34.8;29.3
79347;BME280;68815;48.810;44.482;2023-08-07T09:15:08;99901;;;34.5;28.9
79347;BME280;68815;48.810;44.482;2023-08-07T09:18:11;99903;;;34.6;28.5
79347;BME280;68815;48.810;44.482;2023-08-07T09:21:13;99904;;;34.7;28.5
79347;BME280;68815;48.810;44.482;2023-08-07T09:24:14;99905;;;34.8;28.5
79347;BME280;68815;48.810;44.482;2023-08-07T09:27:16;99900;;;34.6;28.2
79347;BME280;68815;48.810;44.482;2023-08-07T09:30:18;99897;;;34.7;28.3
79347;BME280;68815;48.810;44.482;2023-08-07T09:33:24;99896;;;34.9;28.1
79347;BME280;68815;48.810;44.482;2023-08-07T09:36:26;99902;;;34.7;28.4
79347;BME280;68815;48.810;44.482;2023-08-07T09:39:29;99889;;;34.6;28.5
79347;BME280;68815;48.810;44.482;2023-08-07T09:42:31;99891;;;34.7;28.3
79347;BME280;68815;48.810;44.482;2023-08-07T09:45:33;99886;;;34.7;28.2
79347;BME280;68815;48.810;44.482;2023-08-07T09:48:40;99892;;;34.7;27.8
79347;BME280;68815;48.810;44.482;2023-08-07T09:51:44;99885;;;34.6;27.5
79347;BME280;68815;48.810;44.482;2023-08-07T09:54:46;99873;;;34.6;27.9
79347;BME280;68815;48.810;44.482;2023-08-07T09:57:49;99868;;;34.8;28.3
79347;BME280;68815;48.810;44.482;2023-08-07T10:00:51;99881;;;34.9;27.8
79347;BME280;68815;48.810;44.482;2023-08-07T10:03:52;99876;;;35;28.3
79347;BME280;68815;48.810;44.482;2023-08-07T10:06:54;99880;;;35.1;27.6
79347;BME280;68815;48.810;44.482;2023-08-07T10:09:56;99879;;;35.1;27.4
79347;BME280;68815;48.810;44.482;2023-08-07T10:13:00;99877;;;34.9;27.3
79347;BME280;68815;48.810;44.482;2023-08-07T10:16:02;99877;;;34.8;27.7
79347;BME280;68815;48.810;44.482;2023-08-07T10:19:04;99872;;;34.8;27.9
79347;BME280;68815;48.810;44.482;2023-08-07T10:22:06;99868;;;34.8;27.3
79347;BME280;68815;48.810;44.482;2023-08-07T10:25:08;99877;;;35;27.7
79347;BME280;68815;48.810;44.482;2023-08-07T10:28:13;99872;;;35;27.5
79347;BME280;68815;48.810;44.482;2023-08-07T10:31:17;99875;;;35;27.5
79347;BME280;68815;48.810;44.482;2023-08-07T10:34:19;99859;;;35;27.3
79347;BME280;68815;48.810;44.482;2023-08-07T10:37:39;99864;;;35.1;27.3
79347;BME280;68815;48.810;44.482;2023-08-07T10:40:58;99863;;;35;27
79347;BME280;68815;48.810;44.482;2023-08-07T10:44:02;99865;;;35;27.2
79347;BME280;68815;48.810;44.482;2023-08-07T10:47:04;99870;;;35;27.1
79347;BME280;68815;48.810;44.482;2023-08-07T10:50:09;99865;;;35;27.4
79347;BME280;68815;48.810;44.482;2023-08-07T10:53:18;99860;;;35.1;27.4
79347;BME280;68815;48.810;44.482;2023-08-07T10:56:30;99860;;;35.2;27
79347;BME280;68815;48.810;44.482;2023-08-07T10:59:33;99859;;;35.2;26.9
79347;BME280;68815;48.810;44.482;2023-08-07T11:02:48;99853;;;34.9;26.5
79347;BME280;68815;48.810;44.482;2023-08-07T11:05:49;99859;;;35.1;27.1
79347;BME280;68815;48.810;44.482;2023-08-07T11:08:51;99851;;;35.1;27.1
79347;BME280;68815;48.810;44.482;2023-08-07T11:11:53;99849;;;35.1;26.8
79347;BME280;68815;48.810;44.482;2023-08-07T11:14:55;99846;;;35.2;26.8
79347;BME280;68815;48.810;44.482;2023-08-07T11:17:57;99846;;;35.3;26.5
79347;BME280;68815;48.810;44.482;2023-08-07T11:20:59;99847;;;35.2;26.5
79347;BME280;68815;48.810;44.482;2023-08-07T11:24:01;99850;;;35.1;26.8
79347;BME280;68815;48.810;44.482;2023-08-07T11:27:03;99839;;;35.2;27
79347;BME280;68815;48.810;44.482;2023-08-07T11:30:10;99850;;;35.2;26.6
79347;BME280;68815;48.810;44.482;2023-08-07T11:33:13;99844;;;35.3;26.6
79347;BME280;68815;48.810;44.482;2023-08-07T11:36:15;99848;;;35.3;26.4
79347;BME280;68815;48.810;44.482;2023-08-07T11:39:17;99838;;;35.2;26.7
79347;BME280;68815;48.810;44.482;2023-08-07T11:42:21;99837;;;35.3;26.3
79347;BME280;68815;48.810;44.482;2023-08-07T11:45:23;99836;;;35.4;26.4
79347;BME280;68815;48.810;44.482;2023-08-07T11:48:26;99841;;;35.3;26.7
79347;BME280;68815;48.810;44.482;2023-08-07T11:51:28;99843;;;35.4;26
79347;BME280;68815;48.810;44.482;2023-08-07T11:54:29;99846;;;35.2;26.8
79347;BME280;68815;48.810;44.482;2023-08-07T11:57:31;99839;;;35.2;26.7
79347;BME280;68815;48.810;44.482;2023-08-07T12:00:33;99849;;;35.2;26.5
79347;BME280;68815;48.810;44.482;2023-08-07T12:03:36;99843;;;35.3;26.4
79347;BME280;68815;48.810;44.482;2023-08-07T12:06:38;99838;;;35.3;26.2
79347;BME280;68815;48.810;44.482;2023-08-07T12:13:20;99835;;;35.3;26.5
79347;BME280;68815;48.810;44.482;2023-08-07T12:16:22;99849;;;35.3;25.9
79347;BME280;68815;48.810;44.482;2023-08-07T12:19:23;99851;;;35.2;26
79347;BME280;68815;48.810;44.482;2023-08-07T12:22:27;99833;;;35.3;26.2
79347;BME280;68815;48.810;44.482;2023-08-07T12:25:30;99843;;;35.4;26.3
79347;BME280;68815;48.810;44.482;2023-08-07T12:28:32;99838;;;35.2;25.9
79347;BME280;68815;48.810;44.482;2023-08-07T12:31:33;99847;;;35.3;26.6
79347;BME280;68815;48.810;44.482;2023-08-07T12:34:35;99836;;;35.3;26.4
79347;BME280;68815;48.810;44.482;2023-08-07T12:37:37;99838;;;35.3;26.3
79347;BME280;68815;48.810;44.482;2023-08-07T12:40:38;99835;;;35.3;26.2
79347;BME280;68815;48.810;44.482;2023-08-07T12:43:40;99833;;;35.4;25.9
79347;BME280;68815;48.810;44.482;2023-08-07T12:46:42;99844;;;35.4;26
79347;BME280;68815;48.810;44.482;2023-08-07T12:49:44;99839;;;35.2;25.9
79347;BME280;68815;48.810;44.482;2023-08-07T12:56:17;99830;;;35.2;26
79347;BME280;68815;48.810;44.482;2023-08-07T12:59:18;99826;;;35.2;25.4
79347;BME280;68815;48.810;44.482;2023-08-07T13:02:20;99822;;;35.1;25.5
79347;BME280;68815;48.810;44.482;2023-08-07T13:08:53;99825;;;35.2;25.6
79347;BME280;68815;48.810;44.482;2023-08-07T13:11:55;99834;;;35.2;25.4
79347;BME280;68815;48.810;44.482;2023-08-07T13:14:56;99829;;;35.2;25.4
79347;BME280;68815;48.810;44.482;2023-08-07T13:17:58;99821;;;35.2;25.4
79347;BME280;68815;48.810;44.482;2023-08-07T13:20:59;99813;;;35.2;24.8
79347;BME280;68815;48.810;44.482;2023-08-07T13:24:01;99815;;;35.1;25.4
79347;BME280;68815;48.810;44.482;2023-08-07T13:27:02;99815;;;35.1;24.9
79347;BME280;68815;48.810;44.482;2023-08-07T13:30:05;99816;;;35.1;24.8
79347;BME280;68815;48.810;44.482;2023-08-07T13:33:11;99818;;;35.1;25
79347;BME280;68815;48.810;44.482;2023-08-07T13:36:13;99812;;;35;25
79347;BME280;68815;48.810;44.482;2023-08-07T13:39:14;99812;;;35.1;25
79347;BME280;68815;48.810;44.482;2023-08-07T13:42:16;99808;;;35.1;25
79347;BME280;68815;48.810;44.482;2023-08-07T13:45:17;99808;;;35.1;24.7
79347;BME280;68815;48.810;44.482;2023-08-07T13:48:19;99807;;;35;24.7
79347;BME280;68815;48.810;44.482;2023-08-07T13:51:21;99809;;;35;24.5
79347;BME280;68815;48.810;44.482;2023-08-07T13:54:28;99799;;;35;24.7
79347;BME280;68815;48.810;44.482;2023-08-07T13:57:30;99798;;;35;24.5
79347;BME280;68815;48.810;44.482;2023-08-07T14:00:32;99797;;;35;24.6
79347;BME280;68815;48.810;44.482;2023-08-07T14:03:34;99794;;;35;24.2
79347;BME280;68815;48.810;44.482;2023-08-07T14:06:35;99804;;;35;24.3
79347;BME280;68815;48.810;44.482;2023-08-07T14:09:37;99801;;;35;24.3
79347;BME280;68815;48.810;44.482;2023-08-07T14:12:38;99796;;;34.9;24.3
79347;BME280;68815;48.810;44.482;2023-08-07T14:15:40;99797;;;34.9;24.1
79347;BME280;68815;48.810;44.482;2023-08-07T14:18:42;99793;;;34.8;23.9
79347;BME280;68815;48.810;44.482;2023-08-07T14:21:43;99792;;;34.8;23.9
79347;BME280;68815;48.810;44.482;2023-08-07T14:24:45;99796;;;34.8;23.9
79347;BME280;68815;48.810;44.482;2023-08-07T14:27:47;99788;;;34.8;23.9
79347;BME280;68815;48.810;44.482;2023-08-07T14:30:49;99796;;;34.8;23.8
79347;BME280;68815;48.810;44.482;2023-08-07T14:33:51;99789;;;34.7;23.9
79347;BME280;68815;48.810;44.482;2023-08-07T14:36:52;99783;;;34.7;23.7
79347;BME280;68815;48.810;44.482;2023-08-07T14:39:54;99790;;;34.6;23.8
79347;BME280;68815;48.810;44.482;2023-08-07T14:42:55;99790;;;34.6;23.8
79347;BME280;68815;48.810;44.482;2023-08-07T14:45:57;99777;;;34.5;23.8
79347;BME280;68815;48.810;44.482;2023-08-07T14:48:59;99777;;;34.5;23.7
79347;BME280;68815;48.810;44.482;2023-08-07T14:52:01;99786;;;34.5;23.6
79347;BME280;68815;48.810;44.482;2023-08-07T14:55:04;99788;;;34.5;24.1
79347;BME280;68815;48.810;44.482;2023-08-07T14:58:06;99786;;;34.4;24.3
79347;BME280;68815;48.810;44.482;2023-08-07T15:01:08;99782;;;34.4;24.2
79347;BME280;68815;48.810;44.482;2023-08-07T15:04:09;99778;;;34.4;24
79347;BME280;68815;48.810;44.482;2023-08-07T15:07:12;99771;;;34.3;24.1
79347;BME280;68815;48.810;44.482;2023-08-07T15:10:13;99776;;;34.3;23.9
79347;BME280;68815;48.810;44.482;2023-08-07T15:13:15;99770;;;34.2;24
79347;BME280;68815;48.810;44.482;2023-08-07T15:16:17;99776;;;34.2;24.3
79347;BME280;68815;48.810;44.482;2023-08-07T15:19:18;99771;;;34.1;24.2
79347;BME280;68815;48.810;44.482;2023-08-07T15:22:20;99774;;;34;24.4
79347;BME280;68815;48.810;44.482;2023-08-07T15:25:21;99773;;;34;24.5
79347;BME280;68815;48.810;44.482;2023-08-07T15:28:23;99774;;;33.9;24.6
79347;BME280;68815;48.810;44.482;2023-08-07T15:31:25;99775;;;33.9;24.6
79347;BME280;68815;48.810;44.482;2023-08-07T15:34:26;99786;;;33.8;24.5
79347;BME280;68815;48.810;44.482;2023-08-07T15:37:28;99792;;;33.8;24.8
79347;BME280;68815;48.810;44.482;2023-08-07T15:40:29;99788;;;33.7;24.9
79347;BME280;68815;48.810;44.482;2023-08-07T15:43:31;99788;;;33.7;25.1
79347;BME280;68815;48.810;44.482;2023-08-07T15:46:32;99788;;;33.6;25.1
79347;BME280;68815;48.810;44.482;2023-08-07T15:49:34;99791;;;33.5;25.3
79347;BME280;68815;48.810;44.482;2023-08-07T15:52:36;99790;;;33.5;25.5
79347;BME280;68815;48.810;44.482;2023-08-07T15:55:38;99794;;;33.4;25.7
79347;BME280;68815;48.810;44.482;2023-08-07T15:58:40;99795;;;33.3;26
79347;BME280;68815;48.810;44.482;2023-08-07T16:01:42;99792;;;33.2;26.2
79347;BME280;68815;48.810;44.482;2023-08-07T16:04:43;99795;;;33.1;26.4
79347;BME280;68815;48.810;44.482;2023-08-07T16:07:45;99790;;;33;26.7
79347;BME280;68815;48.810;44.482;2023-08-07T16:10:46;99795;;;32.9;27
79347;BME280;68815;48.810;44.482;2023-08-07T16:13:48;99791;;;32.8;27.2
79347;BME280;68815;48.810;44.482;2023-08-07T16:16:51;99798;;;32.8;27.5
79347;BME280;68815;48.810;44.482;2023-08-07T16:19:52;99804;;;32.7;27.9
79347;BME280;68815;48.810;44.482;2023-08-07T16:22:54;99807;;;32.5;28.5
79347;BME280;68815;48.810;44.482;2023-08-07T16:25:56;99806;;;32.5;28.7
79347;BME280;68815;48.810;44.482;2023-08-07T16:28:57;99800;;;32.3;29.1
79347;BME280;68815;48.810;44.482;2023-08-07T16:31:59;99802;;;32.2;29.4
79347;BME280;68815;48.810;44.482;2023-08-07T16:35:01;99804;;;32.1;29.7
79347;BME280;68815;48.810;44.482;2023-08-07T16:38:06;99806;;;32.1;29.8
79347;BME280;68815;48.810;44.482;2023-08-07T16:41:08;99804;;;32;30
79347;BME280;68815;48.810;44.482;2023-08-07T16:44:10;99805;;;31.9;29.9
79347;BME280;68815;48.810;44.482;2023-08-07T16:47:11;99815;;;31.8;30.1
79347;BME280;68815;48.810;44.482;2023-08-07T16:50:13;99814;;;31.7;30.2
79347;BME280;68815;48.810;44.482;2023-08-07T16:53:14;99817;;;31.6;30.2
79347;BME280;68815;48.810;44.482;2023-08-07T16:56:16;99812;;;31.6;30.2
79347;BME280;68815;48.810;44.482;2023-08-07T16:59:18;99814;;;31.5;30.4
79347;BME280;68815;48.810;44.482;2023-08-07T17:02:20;99823;;;31.5;30.2
79347;BME280;68815;48.810;44.482;2023-08-07T17:05:22;99816;;;31.4;30.4
79347;BME280;68815;48.810;44.482;2023-08-07T17:08:23;99816;;;31.4;30.3
79347;BME280;68815;48.810;44.482;2023-08-07T17:11:31;99833;;;31.3;30.1